createdAt,value
2023-02-04T00:04:56.494Z,100396.44
2023-02-04T00:15:09.743Z,100395.97
2023-02-04T00:37:33.712Z,100402.94
2023-02-04T01:10:41.679Z,100419.53
2023-02-04T02:06:35.533Z,100431.94
2023-02-04T02:16:57.521Z,100429.66
2023-02-04T02:27:48.951Z,100436.44
2023-02-04T02:37:51.468Z,100440.50
2023-02-04T04:27:50.558Z,100485.50
2023-02-04T04:37:56.702Z,100495.91
2023-02-04T04:48:04.471Z,100504.81
2023-02-04T04:58:15.702Z,100508.22
2023-02-04T05:08:22.332Z,100509.38
2023-02-04T05:18:28.652Z,100514.63
2023-02-04T05:28:39.436Z,100510.34
2023-02-04T05:38:43.378Z,100519.41
2023-02-04T05:48:47.553Z,100526.72
2023-02-04T05:58:50.451Z,100534.00
2023-02-04T06:08:54.858Z,100545.84
2023-02-04T06:18:57.708Z,100557.19
2023-02-04T06:29:02.291Z,100567.28
2023-02-04T06:39:05.579Z,100569.53
2023-02-04T06:49:10.037Z,100580.06
2023-02-04T06:59:13.254Z,100591.59
2023-02-04T07:09:17.973Z,100594.94
2023-02-04T07:19:21.389Z,100602.13
2023-02-04T07:29:35.514Z,100603.88
2023-02-04T07:39:44.966Z,100606.19
2023-02-04T07:49:53.936Z,100609.47
2023-02-04T07:59:57.799Z,100620.84
2023-02-04T08:10:19.901Z,100628.78
2023-02-04T08:20:33.404Z,100636.59
2023-02-04T08:30:54.593Z,100639.13
2023-02-04T08:41:04.577Z,100643.91
2023-02-04T08:51:25.996Z,100650.22
2023-02-04T09:02:04.828Z,100654.81
2023-02-04T09:12:23.825Z,100652.25
2023-02-04T09:22:31.955Z,100657.44
2023-02-04T09:32:45.359Z,100660.38
2023-02-04T09:42:50.306Z,100670.56
2023-02-04T09:52:58.264Z,100682.63
2023-02-04T10:03:03.482Z,100683.66
2023-02-04T10:13:15.148Z,100696.06
2023-02-04T10:23:18.432Z,100703.66
2023-02-04T10:33:29.459Z,100713.38
2023-02-04T10:54:31.241Z,100732.78
2023-02-04T11:04:35.342Z,100740.47
2023-02-04T11:14:40.405Z,100742.97
2023-02-04T11:25:07.978Z,100742.16
2023-02-04T11:35:55.288Z,100746.47
2023-02-04T11:46:18.965Z,100752.94
2023-02-04T11:56:51.315Z,100758.44
2023-02-04T12:07:37.637Z,100760.09
2023-02-04T12:17:46.215Z,100768.84
2023-02-04T12:27:52.097Z,100775.22
2023-02-04T12:37:58.318Z,100783.03
2023-02-04T12:48:05.269Z,100794.22
2023-02-04T12:58:36.811Z,100803.50
2023-02-04T13:08:43.642Z,100815.41
2023-02-04T13:18:46.922Z,100827.31
2023-02-04T13:28:51.600Z,100826.69
2023-02-04T13:39:27.592Z,100826.28
2023-02-04T13:50:23.004Z,100826.78
2023-02-04T14:23:58.790Z,100840.19
2023-02-04T14:46:18.695Z,100854.06
2023-02-04T15:43:05.671Z,100905.38
2023-02-04T17:01:23.936Z,100970.88
2023-02-04T18:12:31.989Z,101024.72
2023-02-04T18:34:31.253Z,101022.97
2023-02-04T18:44:44.548Z,101034.53
2023-02-04T18:55:07.367Z,101045.38
2023-02-04T19:05:45.748Z,101052.63
2023-02-04T19:16:16.983Z,101056.69
2023-02-04T19:27:03.923Z,101053.59
2023-02-04T19:37:23.093Z,101060.03
2023-02-04T19:47:40.539Z,101056.53
2023-02-04T19:57:47.320Z,101060.72
2023-02-04T20:07:56.324Z,101071.91
2023-02-04T20:18:02.171Z,101072.59
2023-02-04T20:28:18.232Z,101084.19
2023-02-04T20:38:21.281Z,101088.34
2023-02-04T20:48:32.838Z,101090.00
2023-02-04T20:58:38.195Z,101101.03
2023-02-04T21:08:45.317Z,101111.31
2023-02-04T21:18:48.254Z,101114.78
2023-02-04T21:28:52.641Z,101124.72
2023-02-04T21:38:56.256Z,101130.97
2023-02-04T21:49:00.842Z,101138.72
2023-02-04T21:59:07.503Z,101143.63
2023-02-04T22:09:16.267Z,101144.59
2023-02-04T22:19:20.102Z,101148.91
2023-02-04T22:29:29.040Z,101149.47
2023-02-04T22:39:32.996Z,101149.25
2023-02-04T22:49:37.734Z,101160.63
2023-02-04T22:59:40.921Z,101163.22
2023-02-04T23:09:45.715Z,101171.34
2023-02-04T23:19:48.948Z,101175.44
2023-02-04T23:29:53.449Z,101185.78
2023-02-04T23:39:56.499Z,101187.41
2023-02-04T23:50:01.126Z,101188.41
